Tununak, Alaska
Current Conditions -  °F | °C
As of 12:28 AM on Tuesday 21 Oct 2014 (Local Time) from PAOO Reporting Station
Light Snow Light Snow  
Wind Chill: 18°   Ceiling: Unl
Heat Index: 30°   Visibility: 9mi
Dew Point: 27°   Wind: 17mph
Humidity: 86%   Direction: 330°NNW
Pressure: 29.32"   Gusts: NA
Location:  60.58°N, 165.25°W
Report Text: PAOO 210828Z AUTO 33015KT 9SM -SN SCT004 SCT013 M01/M03 A2932 RMK AO2 TSNO P0000 $
Loading
Personal Weather Stations






























Interactive Weather Map
Tropical Storm Tracking
New forecast layout! Learn more

10-Day Weather Forecast

Advertisements
Track Severe Weather on mobile